Time;durP1;ratioP1;P1;durP2;ratioP2;P2;SDS_P1;SDS_P2;PMS_P1;PMS_P2;Temp;Humidity;BMP_temperature;BMP_pressure;BME280_temperature;BME280_humidity;BME280_pressure;Samples;Min_cycle;Max_cycle;Signal;HPM_P1;HPM_P2
2022/11/25 08:12:06;;;;;;;26.80;16.00;;;;;;;0.36;100.00;99479.20;100026;1328;557592;-57
2022/11/25 08:14:33;;;;;;;29.90;15.90;;;;;;;0.49;100.00;99481.45;100931;1316;110040;-59
2022/11/25 08:17:02;;;;;;;25.80;15.40;;;;;;;0.54;100.00;99484.64;101253;1314;139361;-60
2022/11/25 08:19:28;;;;;;;29.50;15.50;;;;;;;0.58;100.00;99483.20;101406;1297;23130;-59
2022/11/25 08:21:57;;;;;;;27.60;14.90;;;;;;;0.59;100.00;99480.33;101333;1298;22611;-55
2022/11/25 08:24:23;;;;;;;29.00;16.00;;;;;;;0.57;100.00;99474.53;101308;1315;138499;-57
2022/11/25 08:26:52;;;;;;;30.10;16.90;;;;;;;0.59;100.00;99477.92;101693;1312;22490;-56
2022/11/25 08:29:19;;;;;;;32.30;16.00;;;;;;;0.58;100.00;99479.45;105811;1316;138032;-57
2022/11/25 08:31:45;;;;;;;29.50;16.50;;;;;;;0.57;100.00;99481.40;106341;1308;23023;-57
2022/11/25 08:34:21;;;;;;;31.50;14.60;;;;;;;0.56;100.00;99476.20;106328;1308;22397;-57
2022/11/25 08:36:48;;;;;;;28.30;14.20;;;;;;;0.57;100.00;99479.30;105780;1310;138009;-60
2022/11/25 08:39:15;;;;;;;;;;;;;;;0.56;100.00;99479.17;106321;1308;22378;-60
2022/11/25 08:42:03;;;;;;;31.70;16.60;;;;;;;0.54;100.00;99478.70;106261;1309;123945;-60
2022/11/25 08:44:30;;;;;;;31.20;15.20;;;;;;;0.54;100.00;99479.48;106310;1309;22213;-60
2022/11/25 08:46:56;;;;;;;26.10;14.00;;;;;;;0.56;100.00;99480.98;106281;1308;138637;-60
2022/11/25 08:49:25;;;;;;;;;;;;;;;0.57;100.00;99485.89;106375;1308;23302;-60
2022/11/25 08:51:52;;;;;;;23.60;13.00;;;;;;;0.57;100.00;99486.06;106318;1303;22201;-60
2022/11/25 08:54:19;;;;;;;27.60;13.70;;;;;;;0.54;100.00;99488.92;106069;1308;138876;-60
2022/11/25 08:56:45;;;;;;;;;;;;;;;0.52;100.00;99491.96;106363;1304;23345;-60
2022/11/25 08:59:12;;;;;;;27.90;14.10;;;;;;;0.49;100.00;99486.81;106292;1307;124340;-60
2022/11/25 09:01:39;;;;;;;28.40;14.40;;;;;;;0.51;100.00;99489.67;106332;1309;22177;-60
2022/11/25 09:04:06;;;;;;;26.10;14.40;;;;;;;0.48;100.00;99493.11;106247;1302;22521;-60
2022/11/25 09:06:32;;;;;;;27.90;14.10;;;;;;;0.47;100.00;99492.34;106109;1309;138382;-58
2022/11/25 09:09:00;;;;;;;33.30;16.60;;;;;;;0.47;100.00;99491.40;106228;1309;22202;-60
2022/11/25 09:11:27;;;;;;;27.90;13.70;;;;;;;0.47;100.00;99487.28;106125;1295;139556;-60
2022/11/25 09:13:54;;;;;;;31.20;14.40;;;;;;;0.47;100.00;99490.20;106332;1309;22229;-60
2022/11/25 09:16:21;;;;;;;;;;;;;;;0.48;100.00;99489.07;106262;1309;23117;-60
2022/11/25 09:18:48;;;;;;;34.00;15.50;;;;;;;0.48;100.00;99490.35;106167;1309;124274;-60
2022/11/25 09:21:23;;;;;;;31.00;15.30;;;;;;;0.48;100.00;99486.13;106228;1309;22127;-60
2022/11/25 09:23:51;;;;;;;30.00;15.20;;;;;;;0.47;100.00;99489.38;106107;1309;137672;-60
2022/11/25 09:26:23;;;;;;;30.00;15.40;;;;;;;0.50;100.00;99491.55;106220;1309;22150;-60
2022/11/25 09:28:50;;;;;;;31.60;15.00;;;;;;;0.53;100.00;99492.83;106246;1309;140630;-60
2022/11/25 09:31:17;;;;;;;;;;;;;;;0.58;100.00;99493.96;106212;1309;22348;-60
2022/11/25 09:33:44;;;;;;;29.60;15.60;;;;;;;0.60;100.00;99490.31;106221;1309;22116;-60
2022/11/25 09:36:12;;;;;;;24.10;14.00;;;;;;;0.58;100.00;99490.70;106201;1309;138439;-60
2022/11/25 09:38:39;;;;;;;23.30;12.40;;;;;;;0.55;100.00;99480.87;106232;1309;22141;-60
2022/11/25 09:47:16;;;;;;;25.10;12.60;;;;;;;0.59;100.00;99485.23;106094;1309;138689;-62
2022/11/25 09:49:58;;;;;;;22.10;12.40;;;;;;;0.59;100.00;99484.68;106195;1309;22272;-61
2022/11/25 09:52:55;;;;;;;19.20;11.10;;;;;;;0.58;100.00;99482.52;106172;1309;22324;-61
2022/11/25 09:55:23;;;;;;;24.90;11.70;;;;;;;0.59;100.00;99485.77;106173;1309;22751;-61
2022/11/25 09:58:14;;;;;;;23.30;11.80;;;;;;;0.61;100.00;99483.14;106233;1309;23114;-61
2022/11/25 10:00:45;;;;;;;26.40;13.70;;;;;;;0.64;100.00;99486.92;106083;1309;138923;-60
2022/11/25 10:03:14;;;;;;;21.20;11.50;;;;;;;0.67;100.00;99488.15;105992;1313;22955;-60
2022/11/25 10:06:00;;;;;;;24.20;12.00;;;;;;;0.67;100.00;99489.02;106009;1303;139862;-60
2022/11/25 10:08:32;;;;;;;19.30;10.40;;;;;;;0.65;100.00;99490.98;106211;1309;22208;-60
2022/11/25 10:11:06;;;;;;;24.00;11.60;;;;;;;0.63;100.00;99486.17;106159;1309;139920;-60
2022/11/25 10:13:51;;;;;;;19.80;10.20;;;;;;;0.69;100.00;99493.00;106096;1309;22133;-60
2022/11/25 10:16:31;;;;;;;27.10;14.60;;;;;;;0.72;100.00;99492.65;106324;1309;22144;-60
2022/11/25 10:19:00;;;;;;;25.60;14.70;;;;;;;0.73;100.00;99490.08;106152;1309;137629;-60
2022/11/25 10:21:27;;;;;;;66.50;36.00;;;;;;;0.70;100.00;99492.84;106317;1309;22904;-59
2022/11/25 10:23:53;;;;;;;;;;;;;;;0.64;100.00;99476.38;106271;1309;138067;-61
2022/11/25 10:26:22;;;;;;;27.00;13.10;;;;;;;0.74;100.00;99487.27;106115;1311;22240;-62
2022/11/25 10:29:12;;;;;;;24.20;12.60;;;;;;;0.74;100.00;99486.00;105968;1309;138417;-62
2022/11/25 10:31:42;;;;;;;23.10;11.30;;;;;;;0.72;100.00;99485.33;106015;1309;22228;-62
2022/11/25 10:34:30;;;;;;;24.00;11.90;;;;;;;0.69;100.00;99489.98;106266;1309;22099;-62
2022/11/25 10:36:57;;;;;;;21.10;10.80;;;;;;;0.68;100.00;99490.17;106108;1308;138095;-62
2022/11/25 10:39:27;;;;;;;20.50;10.20;;;;;;;0.64;100.00;99492.65;106343;1308;22178;-62
2022/11/25 10:41:55;;;;;;;23.60;11.00;;;;;;;0.60;100.00;99499.05;105979;1309;138783;-62
2022/11/25 10:44:25;;;;;;;23.90;12.50;;;;;;;0.56;100.00;99502.19;106298;1309;22232;-62
2022/11/25 10:47:19;;;;;;;21.20;12.10;;;;;;;0.57;100.00;99502.89;106213;1309;138389;-61
2022/11/25 10:49:52;;;;;;;26.10;12.80;;;;;;;0.58;100.00;99505.89;106379;1308;22303;-62
2022/11/25 10:52:20;;;;;;;24.80;12.60;;;;;;;0.57;100.00;99504.61;106226;1309;22280;-62
2022/11/25 10:54:57;;;;;;;45.20;22.50;;;;;;;0.57;100.00;99505.44;105982;1303;139285;-61
2022/11/25 10:57:26;;;;;;;24.80;13.10;;;;;;;0.60;100.00;99507.96;106394;1308;22107;-61
2022/11/25 10:59:55;;;;;;;22.30;12.30;;;;;;;0.64;100.00;99510.85;106283;1308;140131;-60
2022/11/25 11:02:23;;;;;;;22.90;12.40;;;;;;;0.67;100.00;99511.66;106369;1309;22229;-60
2022/11/25 11:04:58;;;;;;;26.60;13.80;;;;;;;0.68;100.00;99518.20;106270;1309;139243;-59
2022/11/25 11:07:33;;;;;;;22.00;13.30;;;;;;;0.71;100.00;99517.45;106278;1309;22231;-59
2022/11/25 11:10:23;;;;;;;24.70;14.50;;;;;;;0.75;100.00;99517.45;106292;1308;22087;-59
2022/11/25 11:13:24;;;;;;;27.80;14.60;;;;;;;0.75;100.00;99521.73;105892;1313;138382;-59
2022/11/25 11:15:52;;;;;;;28.00;17.10;;;;;;;0.74;100.00;99523.66;106365;1309;22449;-59
2022/11/25 11:18:38;;;;;;;27.50;16.90;;;;;;;0.76;100.00;99529.55;106142;1309;138713;-59
2022/11/25 11:21:06;;;;;;;33.60;18.40;;;;;;;0.79;100.00;99529.27;106114;1301;22127;-59
2022/11/25 11:23:47;;;;;;;28.10;16.50;;;;;;;0.81;100.00;99531.77;106266;1309;139140;-59
2022/11/25 11:26:21;;;;;;;30.00;15.10;;;;;;;0.81;100.00;99529.09;106255;1309;22203;-60
2022/11/25 11:28:56;;;;;;;28.00;14.70;;;;;;;0.82;100.00;99532.36;106249;1291;138565;-59
2022/11/25 11:31:25;;;;;;;25.90;13.70;;;;;;;0.82;100.00;99534.96;106286;1296;22141;-59
2022/11/25 11:33:57;;;;;;;24.20;14.30;;;;;;;0.86;100.00;99539.20;106392;1309;22202;-59
2022/11/25 11:36:56;;;;;;;25.80;13.50;;;;;;;0.87;100.00;99540.77;106261;1309;137795;-59
2022/11/25 11:39:58;;;;;;;23.10;11.90;;;;;;;0.87;100.00;99537.21;105989;1313;22154;-59
2022/11/25 11:42:42;;;;;;;23.10;14.10;;;;;;;0.90;100.00;99540.38;105915;1313;138018;-59
2022/11/25 11:45:22;;;;;;;22.50;13.20;;;;;;;0.92;100.00;99537.50;105988;1313;23727;-59
2022/11/25 11:48:01;;;;;;;24.00;12.00;;;;;;;0.91;100.00;99538.12;105836;1298;138856;-59
2022/11/25 11:50:37;;;;;;;24.40;13.90;;;;;;;0.90;100.00;99540.24;106011;1298;22270;-59
2022/11/25 11:53:19;;;;;;;26.20;14.20;;;;;;;0.88;100.00;99539.90;105697;1313;139402;-59
2022/11/25 11:55:53;;;;;;;30.40;16.00;;;;;;;0.87;100.00;99536.73;105936;1313;22255;-59
2022/11/25 11:58:52;;;;;;;30.70;17.10;;;;;;;0.85;100.00;99537.34;105843;1316;138156;-59
2022/11/25 12:01:40;;;;;;;26.30;13.60;;;;;;;0.83;100.00;99537.54;106008;1312;22187;-60
2022/11/25 12:04:14;;;;;;;23.30;12.30;;;;;;;0.80;100.00;99535.85;106009;1312;22272;-59
2022/11/25 12:06:41;;;;;;;19.90;11.10;;;;;;;0.79;100.00;99538.48;105651;1302;138660;-60
2022/11/25 12:09:11;;;;;;;21.40;11.00;;;;;;;0.81;100.00;99543.23;105950;1297;22234;-59
2022/11/25 12:11:41;;;;;;;20.10;10.90;;;;;;;0.81;100.00;99545.23;105720;1315;140023;-60
2022/11/25 12:14:10;;;;;;;20.30;11.60;;;;;;;0.81;100.00;99551.41;106030;1297;22270;-60
2022/11/25 12:16:42;;;;;;;19.20;10.90;;;;;;;0.81;100.00;99553.39;106114;1308;138165;-59
2022/11/25 12:19:15;;;;;;;19.10;10.00;;;;;;;0.76;100.00;99548.45;106108;1300;22258;-59
2022/11/25 12:21:55;;;;;;;18.40;9.90;;;;;;;0.78;100.00;99556.98;106251;1310;23047;-60
2022/11/25 12:24:32;;;;;;;19.50;9.70;;;;;;;0.75;100.00;99560.88;106317;1299;138914;-59
2022/11/25 12:26:59;;;;;;;19.70;10.00;;;;;;;0.73;100.00;99561.31;102817;1304;22473;-58
2022/11/25 12:29:25;;;;;;;;;;;;;;;0.73;100.00;99562.84;101812;1290;139061;-58
2022/11/25 12:32:02;;;;;;;15.10;8.80;;;;;;;0.75;100.00;99563.27;101956;1297;22507;-59
2022/11/25 12:34:47;;;;;;;17.90;9.90;;;;;;;0.76;100.00;99563.16;106003;1315;22255;-61
2022/11/25 12:37:26;;;;;;;23.80;12.70;;;;;;;0.75;100.00;99563.40;106250;1294;22266;-60
2022/11/25 12:40:06;;;;;;;20.60;10.00;;;;;;;0.77;100.00;99562.71;106416;1307;23036;-60
2022/11/25 12:42:33;;;;;;;18.80;9.90;;;;;;;0.76;100.00;99561.48;106143;1301;140618;-59
2022/11/25 12:45:04;;;;;;;;;;;;;;;0.76;100.00;99561.02;106338;1298;22357;-60
2022/11/25 12:47:31;;;;;;;16.20;8.80;;;;;;;0.77;100.00;99562.71;106231;1294;125279;-60
2022/11/25 12:49:58;;;;;;;;;;;;;;;0.77;100.00;99567.27;106409;1300;22487;-60
2022/11/25 12:52:40;;;;;;;17.60;9.10;;;;;;;0.77;100.00;99567.34;106411;1292;22152;-60
2022/11/25 12:55:24;;;;;;;18.20;9.40;;;;;;;0.73;100.00;99568.05;106301;1308;22430;-59
2022/11/25 12:58:06;;;;;;;17.20;9.30;;;;;;;0.70;100.00;99562.64;106460;1309;23486;-60
2022/11/25 13:01:02;;;;;;;18.60;10.20;;;;;;;0.70;100.00;99557.77;106334;1309;138703;-59
2022/11/25 13:03:47;;;;;;;21.20;10.50;;;;;;;0.69;100.00;99553.77;106371;1293;23066;-59
2022/11/25 13:06:37;;;;;;;22.70;12.70;;;;;;;0.67;100.00;99554.23;106324;1301;138917;-59
2022/11/25 13:09:49;;;;;;;24.80;12.20;;;;;;;0.63;100.00;99553.37;106402;1308;22207;-59
2022/11/25 13:12:28;;;;;;;29.60;13.30;;;;;;;0.62;100.00;99558.23;105958;1312;138000;-59
2022/11/25 13:15:49;;;;;;;25.40;12.50;;;;;;;0.63;100.00;99557.58;106304;1309;22311;-59
2022/11/25 13:18:19;;;;;;;31.80;13.70;;;;;;;0.66;100.00;99562.19;105272;1310;139267;-59
2022/11/25 13:20:50;;;;;;;30.40;13.50;;;;;;;0.68;100.00;99564.67;105326;1317;22272;-60
2022/11/25 13:23:17;;;;;;;26.10;13.20;;;;;;;0.68;100.00;99565.34;105257;1303;139353;-60
2022/11/25 13:25:45;;;;;;;37.90;18.90;;;;;;;0.67;100.00;99564.95;105432;1310;22308;-59
2022/11/25 13:28:30;;;;;;;69.90;26.70;;;;;;;0.66;100.00;99562.73;105403;1318;22968;-59
2022/11/25 13:31:12;;;;;;;72.00;25.60;;;;;;;0.69;100.00;99568.64;105279;1317;138271;-60
2022/11/25 13:33:42;;;;;;;44.20;16.60;;;;;;;0.69;100.00;99570.63;105426;1317;22339;-60
2022/11/25 13:36:19;;;;;;;28.80;13.70;;;;;;;0.69;100.00;99571.74;105320;1317;139395;-60
2022/11/25 13:38:49;;;;;;;35.60;19.10;;;;;;;0.68;100.00;99573.42;105414;1317;22354;-60
2022/11/25 13:41:18;;;;;;;31.70;17.20;;;;;;;0.64;100.00;99568.97;105327;1317;139420;-60
2022/11/25 13:43:54;;;;;;;28.10;14.40;;;;;;;0.66;100.00;99573.19;105386;1317;22199;-60
2022/11/25 13:46:36;;;;;;;30.60;14.90;;;;;;;0.64;100.00;99574.69;105307;1308;22196;-59
2022/11/25 13:49:05;;;;;;;33.70;15.40;;;;;;;0.63;100.00;99576.21;105135;1306;138171;-59
2022/11/25 13:51:32;;;;;;;34.80;16.30;;;;;;;0.63;100.00;99580.00;105670;1312;24075;-59
2022/11/25 13:54:00;;;;;;;30.30;13.70;;;;;;;0.62;100.00;99581.69;106342;1296;138658;-60
2022/11/25 13:56:34;;;;;;;32.90;15.40;;;;;;;0.61;100.00;99585.38;106423;1300;22186;-60
2022/11/25 13:59:32;;;;;;;32.00;14.90;;;;;;;0.58;100.00;99588.95;106450;1304;138617;-60
2022/11/25 14:02:27;;;;;;;31.80;15.20;;;;;;;0.57;100.00;99586.31;106487;1305;22825;-59
2022/11/25 14:05:22;;;;;;;29.40;13.80;;;;;;;0.55;100.00;99584.77;106448;1304;138692;-59
2022/11/25 14:08:06;;;;;;;28.70;15.40;;;;;;;0.52;100.00;99588.50;106538;1298;22202;-59
2022/11/25 14:10:55;;;;;;;32.30;15.60;;;;;;;0.52;100.00;99591.09;106592;1305;22144;-59
2022/11/25 14:13:37;;;;;;;47.70;23.90;;;;;;;0.52;100.00;99596.61;106564;1305;22217;-62
2022/11/25 14:16:14;;;;;;;37.40;16.90;;;;;;;0.53;100.00;99593.79;106567;1305;22238;-60
2022/11/25 14:18:50;;;;;;;45.40;21.50;;;;;;;0.53;100.00;99593.54;106465;1299;139066;-60
2022/11/25 14:21:43;;;;;;;38.70;17.80;;;;;;;0.53;100.00;99598.40;106411;1305;22146;-60
2022/11/25 14:24:12;;;;;;;36.60;16.10;;;;;;;0.51;100.00;99593.70;106378;1305;138905;-59
2022/11/25 14:26:39;;;;;;;35.40;16.70;;;;;;;0.50;100.00;99595.02;106555;1305;22215;-60
2022/11/25 14:29:35;;;;;;;36.80;16.10;;;;;;;0.45;100.00;99592.09;106437;1305;139242;-60
2022/11/25 14:32:09;;;;;;;38.90;17.40;;;;;;;0.49;100.00;99595.91;106515;1306;22360;-60
2022/11/25 14:34:39;;;;;;;41.10;17.40;;;;;;;0.48;100.00;99600.41;106437;1305;22857;-60
2022/11/25 14:37:13;;;;;;;33.30;16.40;;;;;;;0.49;100.00;99603.39;106313;1297;138120;-60
2022/11/25 14:39:40;;;;;;;40.70;20.00;;;;;;;0.50;100.00;99604.38;106474;1306;22217;-60
2022/11/25 14:42:08;;;;;;;;;;;;;;;0.49;100.00;99605.28;106420;1296;139769;-61
2022/11/25 14:44:43;;;;;;;35.70;16.40;;;;;;;0.50;100.00;99603.84;106510;1298;22337;-61
2022/11/25 14:47:10;;;;;;;30.10;15.10;;;;;;;0.49;100.00;99605.94;106355;1291;138563;-62
2022/11/25 14:49:43;;;;;;;;;;;;;;;0.48;100.00;99606.74;106494;1294;22399;-60
2022/11/25 14:52:34;;;;;;;40.00;16.70;;;;;;;0.46;100.00;99607.30;106497;1306;22160;-60
2022/11/25 14:55:03;;;;;;;35.00;14.90;;;;;;;0.46;100.00;99610.23;106437;1298;139826;-60
2022/11/25 14:57:35;;;;;;;36.10;15.80;;;;;;;0.46;100.00;99610.14;106531;1280;22157;-60
2022/11/25 15:00:05;;;;;;;39.70;18.60;;;;;;;0.46;100.00;99606.14;106267;1305;138350;-60
2022/11/25 15:02:34;;;;;;;42.70;17.50;;;;;;;0.46;100.00;99611.22;106392;1294;22253;-60
2022/11/25 15:05:12;;;;;;;47.20;21.10;;;;;;;0.48;100.00;99611.94;106470;1291;140168;-60
2022/11/25 15:07:40;;;;;;;37.00;16.40;;;;;;;0.50;100.00;99614.45;106489;1291;22857;-60
2022/11/25 15:11:02;;;;;;;35.90;16.90;;;;;;;0.51;100.00;99617.55;106514;1305;23105;-60
2022/11/25 15:13:33;;;;;;;39.30;18.60;;;;;;;0.51;100.00;99617.45;106122;1309;23001;-61
2022/11/25 15:16:09;;;;;;;39.30;17.20;;;;;;;0.50;100.00;99618.20;106187;1302;22141;-60
2022/11/25 15:18:36;;;;;;;47.30;20.30;;;;;;;0.51;100.00;99626.17;105978;1309;139100;-60
2022/11/25 15:21:03;;;;;;;35.80;17.10;;;;;;;0.52;100.00;99623.88;106272;1308;22159;-60
2022/11/25 15:23:33;;;;;;;57.30;24.20;;;;;;;0.52;100.00;99622.48;106133;1299;138260;-61
2022/11/25 15:26:01;;;;;;;52.20;20.10;;;;;;;0.52;100.00;99627.09;106267;1299;22193;-60
2022/11/25 15:28:35;;;;;;;41.30;19.10;;;;;;;0.47;100.00;99622.17;106160;1309;22485;-60
2022/11/25 15:31:07;;;;;;;44.60;19.20;;;;;;;0.50;100.00;99628.23;106032;1309;139040;-60
2022/11/25 15:33:34;;;;;;;34.20;17.50;;;;;;;0.49;100.00;99632.63;106147;1294;22167;-60
2022/11/25 15:36:00;;;;;;;36.80;16.90;;;;;;;0.49;100.00;99638.27;105927;1303;139546;-60
2022/11/25 15:38:43;;;;;;;;;;;;;;;0.47;100.00;99633.42;106093;1287;22377;-60
2022/11/25 15:41:28;;;;;;;39.30;18.60;;;;;;;0.47;100.00;99638.12;106057;1310;126106;-60
2022/11/25 15:43:55;;;;;;;42.20;18.20;;;;;;;0.47;100.00;99639.11;106254;1302;22193;-61
2022/11/25 15:46:22;;;;;;;;;;;;;;;0.47;100.00;99642.87;106170;1296;23153;-60
2022/11/25 15:48:50;;;;;;;34.70;16.70;;;;;;;0.46;100.00;99643.89;106339;1305;125139;-60
2022/11/25 15:51:29;;;;;;;32.20;15.70;;;;;;;0.46;100.00;99643.89;106431;1300;22228;-60
2022/11/25 15:54:02;;;;;;;34.20;16.70;;;;;;;0.48;100.00;99643.30;106300;1298;138663;-60
2022/11/25 15:56:29;;;;;;;33.60;14.00;;;;;;;0.50;100.00;99646.33;106395;1305;22543;-60
2022/11/25 15:58:55;;;;;;;34.00;15.90;;;;;;;0.50;100.00;99648.30;106319;1284;138823;-60
2022/11/25 16:01:27;;;;;;;30.90;14.50;;;;;;;0.49;100.00;99647.52;106543;1285;22114;-60
2022/11/25 16:04:18;;;;;;;29.90;14.60;;;;;;;0.40;100.00;99631.65;106561;1305;22924;-60
2022/11/25 16:06:55;;;;;;;26.50;13.40;;;;;;;0.50;100.00;99650.08;106351;1283;139137;-60
2022/11/25 16:09:24;;;;;;;23.40;11.90;;;;;;;0.51;100.00;99649.19;106501;1283;22917;-60
2022/11/25 16:11:50;;;;;;;21.60;11.80;;;;;;;0.51;100.00;99650.13;106389;1284;138461;-60
2022/11/25 16:14:17;;;;;;;;;;;;;;;0.51;100.00;99650.54;106522;1296;22406;-60
2022/11/25 16:16:45;;;;;;;28.60;14.20;;;;;;;0.52;100.00;99644.66;106509;1291;22207;-60
2022/11/25 16:19:21;;;;;;;21.00;11.20;;;;;;;0.52;100.00;99642.48;106352;1298;138893;-60
2022/11/25 16:21:58;;;;;;;24.30;11.80;;;;;;;0.54;100.00;99643.85;106474;1291;22308;-60
2022/11/25 16:24:26;;;;;;;23.10;11.90;;;;;;;0.48;100.00;99642.96;106344;1297;139919;-59
2022/11/25 16:27:01;;;;;;;25.80;12.20;;;;;;;0.51;100.00;99647.21;106433;1292;22935;-59
2022/11/25 16:29:46;;;;;;;19.30;11.30;;;;;;;0.52;100.00;99651.42;106330;1305;140003;-60
2022/11/25 16:32:14;;;;;;;22.50;11.50;;;;;;;0.53;100.00;99651.06;106501;1283;22130;-61
2022/11/25 16:34:41;;;;;;;25.70;13.60;;;;;;;0.53;100.00;99649.88;106513;1305;22164;-61
2022/11/25 16:37:08;;;;;;;26.60;12.60;;;;;;;0.53;100.00;99650.61;106408;1290;138838;-61
2022/11/25 16:39:35;;;;;;;20.50;11.70;;;;;;;0.55;100.00;99656.41;106528;1297;22143;-61
2022/11/25 16:42:03;;;;;;;18.30;10.00;;;;;;;0.56;100.00;99655.64;106367;1305;138729;-61
2022/11/25 16:44:32;;;;;;;15.20;9.10;;;;;;;0.55;100.00;99652.79;106430;1296;23009;-61
2022/11/25 16:46:59;;;;;;;18.90;9.00;;;;;;;0.55;100.00;99654.27;106329;1302;138992;-61
2022/11/25 16:49:28;;;;;;;13.40;8.10;;;;;;;0.55;100.00;99654.27;106520;1298;22129;-60
2022/11/25 16:51:55;;;;;;;15.10;8.50;;;;;;;0.52;100.00;99646.60;106454;1306;22336;-60
2022/11/25 16:54:22;;;;;;;13.70;7.50;;;;;;;0.57;100.00;99655.44;106382;1292;138808;-61
2022/11/25 16:56:50;;;;;;;14.20;8.60;;;;;;;0.57;100.00;99657.58;106529;1297;22305;-60
2022/11/25 16:59:18;;;;;;;13.70;7.80;;;;;;;0.56;100.00;99661.41;106453;1305;140885;-61
2022/11/25 17:01:45;;;;;;;12.00;7.20;;;;;;;0.57;100.00;99666.03;106503;1305;22142;-61
2022/11/25 17:04:13;;;;;;;12.40;7.50;;;;;;;0.58;100.00;99668.17;106420;1305;22135;-60
2022/11/25 17:06:41;;;;;;;13.30;7.20;;;;;;;0.58;100.00;99674.73;106398;1305;138098;-61
2022/11/25 17:09:07;;;;;;;11.40;6.90;;;;;;;0.58;100.00;99673.34;106535;1298;22265;-60
2022/11/25 17:11:37;;;;;;;15.30;8.20;;;;;;;0.58;100.00;99676.92;106387;1305;139277;-60
2022/11/25 17:14:29;;;;;;;11.60;6.80;;;;;;;0.57;100.00;99678.45;106546;1293;22896;-61
2022/11/25 17:16:57;;;;;;;16.70;8.30;;;;;;;0.57;100.00;99677.66;103106;1288;138154;-63
2022/11/25 17:19:24;;;;;;;15.90;8.80;;;;;;;0.57;100.00;99680.23;101959;1298;24531;-60
2022/11/25 17:21:51;;;;;;;12.70;8.00;;;;;;;0.57;100.00;99680.77;102209;1282;24368;-61
2022/11/25 17:24:22;;;;;;;14.10;8.00;;;;;;;0.59;100.00;99683.41;102120;1291;138947;-62
2022/11/25 17:27:03;;;;;;;17.00;7.80;;;;;;;0.59;100.00;99682.46;102178;1300;22500;-62
2022/11/25 17:29:35;;;;;;;17.00;8.30;;;;;;;0.60;100.00;99684.56;102054;1307;138665;-61
2022/11/25 17:32:02;;;;;;;18.90;9.30;;;;;;;0.58;100.00;99687.27;106345;1294;23058;-62
2022/11/25 17:34:29;;;;;;;17.40;8.90;;;;;;;0.57;100.00;99685.30;106466;1305;23354;-61
2022/11/25 17:37:06;;;;;;;19.20;8.80;;;;;;;0.56;100.00;99687.73;106431;1297;138008;-61
2022/11/25 17:39:32;;;;;;;13.20;8.10;;;;;;;0.56;100.00;99688.97;106472;1306;22390;-61
2022/11/25 17:42:01;;;;;;;18.80;9.50;;;;;;;0.57;100.00;99690.49;106423;1305;138989;-61
2022/11/25 17:44:28;;;;;;;14.60;7.90;;;;;;;0.56;100.00;99690.61;106475;1282;22936;-61
2022/11/25 17:46:55;;;;;;;16.70;9.60;;;;;;;0.55;100.00;99696.41;106401;1305;139804;-61
2022/11/25 17:49:22;;;;;;;22.60;10.30;;;;;;;0.56;100.00;99692.88;106496;1305;23217;-61
2022/11/25 17:51:49;;;;;;;15.50;8.40;;;;;;;0.58;100.00;99690.28;106558;1290;22920;-61
2022/11/25 17:54:16;;;;;;;17.30;8.90;;;;;;;0.56;100.00;99682.14;106436;1289;139477;-61
2022/11/25 17:56:44;;;;;;;13.00;8.10;;;;;;;0.60;100.00;99683.92;106500;1285;22152;-61
2022/11/25 17:59:31;;;;;;;10.60;7.00;;;;;;;0.60;100.00;99681.27;106428;1305;139632;-61
2022/11/25 18:01:58;;;;;;;18.20;8.00;;;;;;;0.60;100.00;99676.45;106453;1293;22112;-61
2022/11/25 18:04:34;;;;;;;11.00;5.70;;;;;;;0.60;100.00;99670.63;106514;1292;22126;-61
2022/11/25 18:07:01;;;;;;;8.70;5.30;;;;;;;0.59;100.00;99667.92;106430;1296;138722;-61
2022/11/25 18:09:28;;;;;;;8.60;5.00;;;;;;;0.55;100.00;99666.96;106509;1291;22136;-62
2022/11/25 18:11:55;;;;;;;;;;;;;;;0.53;100.00;99670.98;106388;1305;139546;-61
2022/11/25 18:14:25;;;;;;;9.40;5.60;;;;;;;0.52;100.00;99663.96;106504;1291;22199;-61
2022/11/25 18:16:52;;;;;;;16.70;7.90;;;;;;;0.50;100.00;99658.95;103110;1299;138777;-58
2022/11/25 18:19:19;;;;;;;13.40;8.40;;;;;;;0.48;100.00;99666.17;102111;1288;24212;-61
2022/11/25 18:21:46;;;;;;;15.20;9.50;;;;;;;0.46;100.00;99665.94;102246;1288;22884;-61
2022/11/25 18:24:13;;;;;;;15.20;10.90;;;;;;;0.45;100.00;99663.23;101918;1291;138667;-61
2022/11/25 18:26:44;;;;;;;11.10;7.00;;;;;;;0.47;100.00;99664.05;102247;1289;22503;-60
2022/11/25 18:29:13;;;;;;;12.00;7.80;;;;;;;0.48;100.00;99669.73;102083;1298;139396;-59
2022/11/25 18:31:40;;;;;;;12.00;6.90;;;;;;;0.48;100.00;99669.84;101959;1291;23781;-60
2022/11/25 18:34:11;;;;;;;;;;;;;;;0.47;100.00;99667.93;102127;1291;25322;-60
2022/11/25 18:36:37;;;;;;;6.20;4.50;;;;;;;0.46;100.00;99668.74;102084;1291;125705;-59
2022/11/25 18:39:04;;;;;;;;;;;;;;;0.43;100.00;99666.63;102157;1291;25246;-60
2022/11/25 18:41:31;;;;;;;8.40;4.70;;;;;;;0.40;100.00;99671.54;101979;1291;125232;-59
2022/11/25 18:43:58;;;;;;;7.20;4.00;;;;;;;0.37;100.00;99675.05;102053;1298;22912;-60
2022/11/25 18:46:25;;;;;;;5.80;4.20;;;;;;;0.37;100.00;99676.20;101982;1301;25397;-60
2022/11/25 18:48:55;;;;;;;5.90;4.50;;;;;;;0.37;100.00;99674.14;101794;1301;137990;-61
2022/11/25 18:51:22;;;;;;;7.50;4.80;;;;;;;0.38;100.00;99676.48;102172;1296;22957;-61
2022/11/25 18:53:49;;;;;;;7.00;4.30;;;;;;;0.36;100.00;99674.95;102030;1297;137994;-60
2022/11/25 18:56:15;;;;;;;8.40;5.40;;;;;;;0.33;100.00;99675.33;102096;1301;22533;-60
2022/11/25 18:58:46;;;;;;;8.30;4.90;;;;;;;0.31;100.00;99678.88;106262;1304;22788;-61
2022/11/25 19:01:12;;;;;;;10.10;6.40;;;;;;;0.30;100.00;99681.46;106362;1288;138183;-62
2022/11/25 19:03:39;;;;;;;9.20;5.60;;;;;;;0.29;100.00;99683.89;106472;1290;22106;-61
2022/11/25 19:06:09;;;;;;;;;;;;;;;0.30;100.00;99688.36;106460;1297;138259;-61
2022/11/25 19:08:36;;;;;;;9.80;5.20;;;;;;;0.32;100.00;99688.70;106510;1283;22305;-61
2022/11/25 19:11:02;;;;;;;9.30;5.60;;;;;;;0.33;100.00;99693.29;106399;1300;138556;-61
2022/11/25 19:13:30;;;;;;;;;;;;;;;0.35;100.00;99696.25;106533;1306;22457;-61
2022/11/25 19:16:05;;;;;;;9.20;6.20;;;;;;;0.39;100.00;99697.30;106471;1306;22224;-61
2022/11/25 19:18:32;;;;;;;6.70;4.50;;;;;;;0.42;100.00;99699.36;106304;1286;139372;-61
2022/11/25 19:20:59;;;;;;;7.90;5.10;;;;;;;0.44;100.00;99704.93;106463;1306;22138;-61
2022/11/25 19:23:29;;;;;;;8.90;4.50;;;;;;;0.46;100.00;99707.22;106435;1305;138439;-61
2022/11/25 19:26:06;;;;;;;7.60;4.60;;;;;;;0.48;100.00;99712.39;106472;1305;22272;-61
2022/11/25 19:28:33;;;;;;;7.20;4.50;;;;;;;0.48;100.00;99714.33;106484;1298;22152;-61
2022/11/25 19:31:01;;;;;;;6.50;4.20;;;;;;;0.48;100.00;99716.11;106463;1305;138902;-61
2022/11/25 19:33:34;;;;;;;5.20;3.90;;;;;;;0.50;100.00;99714.74;106428;1300;23090;-61
2022/11/25 19:36:01;;;;;;;6.00;4.40;;;;;;;0.53;100.00;99720.05;106374;1289;139247;-61
2022/11/25 19:38:28;;;;;;;;;;;;;;;0.53;100.00;99712.96;106554;1284;22357;-61
2022/11/25 19:40:55;;;;;;;5.30;3.50;;;;;;;0.58;100.00;99718.08;106426;1298;124390;-61
2022/11/25 19:43:25;;;;;;;7.70;4.00;;;;;;;0.59;100.00;99714.13;106574;1297;22627;-61
2022/11/25 19:45:53;;;;;;;5.70;4.00;;;;;;;0.61;100.00;99712.96;106533;1298;22936;-61
2022/11/25 19:48:20;;;;;;;5.60;3.50;;;;;;;0.62;100.00;99712.85;106342;1305;138435;-61
2022/11/25 19:50:48;;;;;;;;;;;;;;;0.63;100.00;99709.20;106550;1291;22333;-62
2022/11/25 19:53:19;;;;;;;5.90;3.80;;;;;;;0.62;100.00;99713.55;106399;1284;125376;-61
2022/11/25 19:55:46;;;;;;;6.00;4.20;;;;;;;0.62;100.00;99714.86;106481;1298;22185;-61
2022/11/25 19:58:13;;;;;;;6.90;4.80;;;;;;;0.62;100.00;99713.39;106504;1292;22133;-61